Time;durP1;ratioP1;P1;durP2;ratioP2;P2;SDS_P1;SDS_P2;PMS_P1;PMS_P2;Temp;Humidity;BMP_temperature;BMP_pressure;BME280_temperature;BME280_humidity;BME280_pressure;Samples;Min_cycle;Max_cycle;Signal;HPM_P1;HPM_P2
2022/03/01 00:02:22;;;;;;;13.10;10.30;;;3.60;1.00;3.90;101891.00;;;;5029864;28;21425;-79
2022/03/01 00:04:53;;;;;;;15.47;11.07;;;3.30;1.00;3.70;101860.00;;;;5021865;28;20477;-81
2022/03/01 00:07:21;;;;;;;12.77;10.93;;;3.30;1.00;3.70;101894.00;;;;5027728;28;20448;-81
2022/03/01 00:09:50;;;;;;;13.23;11.53;;;3.50;1.00;3.70;101901.00;;;;5021755;28;20467;-81
2022/03/01 00:12:18;;;;;;;15.27;11.90;;;3.10;1.00;3.80;101913.00;;;;5030519;28;20476;-82
2022/03/01 00:14:47;;;;;;;15.10;11.57;;;3.40;1.00;3.90;101892.00;;;;5039261;28;20472;-81
2022/03/01 00:17:15;;;;;;;15.30;10.93;;;3.10;1.00;3.70;101908.00;;;;5031220;28;20537;-81
2022/03/01 00:19:43;;;;;;;14.30;10.73;;;3.10;1.00;3.60;101907.00;;;;5025721;28;20523;-81
2022/03/01 00:22:13;;;;;;;13.93;10.73;;;3.10;1.00;3.50;101912.00;;;;5028656;28;20457;-80
2022/03/01 00:24:41;;;;;;;15.37;10.67;;;3.10;1.00;3.70;101929.00;;;;5039532;28;20473;-80
2022/03/01 00:27:10;;;;;;;14.73;9.93;;;3.00;1.00;3.70;101921.00;;;;5023090;28;21076;-80
2022/03/01 00:29:38;;;;;;;15.00;9.60;;;3.00;1.00;3.80;101920.00;;;;5046972;28;20453;-81
2022/03/01 00:32:07;;;;;;;14.33;10.40;;;3.10;1.00;3.60;101932.00;;;;5038781;28;20453;-80
2022/03/01 00:34:38;;;;;;;15.07;10.23;;;3.00;1.00;3.60;101923.00;;;;5046784;28;20457;-80
2022/03/01 00:37:07;;;;;;;16.17;11.93;;;3.00;1.00;3.60;101928.00;;;;5044875;28;20569;-79
2022/03/01 00:39:37;;;;;;;12.83;10.27;;;3.00;1.00;3.60;101920.00;;;;5035272;28;20464;-81
2022/03/01 00:42:06;;;;;;;14.03;9.97;;;3.40;1.00;3.60;101935.00;;;;5027807;28;20471;-81
2022/03/01 00:44:36;;;;;;;14.30;11.00;;;3.00;1.00;3.60;101928.00;;;;5024352;28;20477;-81
2022/03/01 00:47:05;;;;;;;15.33;10.90;;;3.00;1.00;3.60;101939.00;;;;5038380;28;20454;-83
2022/03/01 00:49:34;;;;;;;17.43;11.63;;;3.00;1.00;3.50;101910.00;;;;5042136;28;20457;-81
2022/03/01 00:52:02;;;;;;;12.93;10.27;;;2.90;1.00;3.50;101906.00;;;;5041254;28;20488;-84
2022/03/01 00:54:31;;;;;;;13.90;10.80;;;2.90;1.00;3.60;101926.00;;;;5059125;28;20549;-80
2022/03/01 00:57:00;;;;;;;14.10;11.33;;;2.90;1.00;3.50;101936.00;;;;5029951;28;20497;-80
2022/03/01 00:59:29;;;;;;;15.50;11.33;;;2.90;1.00;3.30;101943.00;;;;5039360;28;20444;-80
2022/03/01 01:01:57;;;;;;;17.07;12.57;;;2.80;1.00;3.30;101935.00;;;;5019163;28;20586;-81
2022/03/01 01:04:26;;;;;;;15.87;11.60;;;2.80;1.00;3.40;101927.00;;;;5021257;28;20484;-80
2022/03/01 01:06:54;;;;;;;17.57;12.60;;;2.80;1.00;3.30;101912.00;;;;5020518;28;21326;-81
2022/03/01 01:09:22;;;;;;;15.33;10.33;;;2.80;1.00;3.30;101928.00;;;;5021941;28;20467;-81
2022/03/01 01:11:51;;;;;;;14.53;10.53;;;2.80;1.00;3.40;101915.00;;;;5036537;28;20453;-81
2022/03/01 01:14:22;;;;;;;19.20;11.43;;;2.70;1.00;3.30;101927.00;;;;5020800;28;20561;-81
2022/03/01 01:16:51;;;;;;;17.53;12.17;;;2.70;1.00;3.20;101931.00;;;;5017824;28;20472;-81
2022/03/01 01:19:19;;;;;;;15.10;11.00;;;2.70;1.00;3.10;101920.00;;;;5017003;28;20875;-79
2022/03/01 01:24:34;;;;;;;16.17;11.80;;;2.80;1.00;3.10;101926.00;;;;5036420;28;20480;-79
2022/03/01 01:27:02;;;;;;;17.80;11.47;;;2.60;1.00;3.20;101917.00;;;;5039954;28;20483;-83
2022/03/01 01:29:32;;;;;;;14.60;11.20;;;2.60;1.00;3.00;101921.00;;;;5033653;28;20461;-84
2022/03/01 01:32:00;;;;;;;17.40;11.47;;;2.80;1.00;3.10;101929.00;;;;5015646;28;20457;-82
2022/03/01 01:34:28;;;;;;;14.60;11.27;;;2.50;1.00;3.20;101919.00;;;;5020522;28;20480;-80
2022/03/01 01:36:57;;;;;;;17.43;10.50;;;2.60;1.00;3.20;101926.00;;;;5035904;28;20484;-78
2022/03/01 01:39:25;;;;;;;14.20;10.60;;;2.60;1.00;3.00;101933.00;;;;5020298;28;20463;-79
2022/03/01 01:41:54;;;;;;;14.90;10.20;;;2.60;1.00;3.00;101947.00;;;;5034229;28;21056;-81
2022/03/01 01:44:23;;;;;;;15.50;9.70;;;2.50;1.00;3.00;101941.00;;;;5035387;28;21321;-79
2022/03/01 01:46:56;;;;;;;18.07;11.17;;;2.50;1.00;3.10;101926.00;;;;5017523;28;20460;-80
2022/03/01 01:49:25;;;;;;;16.20;11.20;;;2.60;1.00;3.20;101946.00;;;;5019944;28;20448;-79
2022/03/01 01:51:55;;;;;;;14.90;10.90;;;2.60;1.00;3.20;101939.00;;;;5023749;28;20462;-78
2022/03/01 01:54:26;;;;;;;16.37;11.73;;;2.70;1.00;3.20;101931.00;;;;5030097;28;21002;-79
2022/03/01 01:56:54;;;;;;;16.43;11.93;;;2.60;1.00;3.10;101902.00;;;;5023504;28;20459;-78
2022/03/01 01:59:23;;;;;;;15.30;10.17;;;2.60;1.00;3.10;101924.00;;;;5025452;28;20445;-78
2022/03/01 02:01:51;;;;;;;15.43;10.63;;;2.90;1.00;3.10;101930.00;;;;5036831;28;20512;-79
2022/03/01 02:04:22;;;;;;;16.93;10.77;;;2.60;1.00;3.10;101940.00;;;;5025089;28;20559;-78
2022/03/01 02:06:51;;;;;;;21.17;11.80;;;2.20;1.00;3.00;101932.00;;;;5025714;28;20453;-79
2022/03/01 02:09:20;;;;;;;14.10;11.00;;;2.90;1.00;3.00;101936.00;;;;5023828;28;20460;-80
2022/03/01 02:11:48;;;;;;;16.97;11.50;;;2.50;1.00;2.90;101934.00;;;;5029124;28;20459;-79
2022/03/01 02:14:17;;;;;;;17.70;10.73;;;2.60;1.00;2.80;101921.00;;;;5046298;28;21060;-80
2022/03/01 02:16:46;;;;;;;15.03;10.90;;;2.40;1.00;2.80;101917.00;;;;5030309;28;20455;-78
2022/03/01 02:19:15;;;;;;;16.63;11.20;;;2.30;1.00;2.80;101922.00;;;;5038843;28;20460;-79
2022/03/01 02:21:50;;;;;;;17.83;11.10;;;2.70;1.00;2.80;101919.00;;;;5047116;28;20480;-78
2022/03/01 02:24:20;;;;;;;19.17;11.23;;;2.30;1.00;2.90;101915.00;;;;5059094;28;20479;-79
2022/03/01 02:26:49;;;;;;;15.00;10.63;;;2.30;1.00;2.90;101917.00;;;;5059184;28;20540;-78
2022/03/01 02:29:17;;;;;;;17.17;11.27;;;2.40;1.00;2.80;101913.00;;;;5032718;28;20457;-78
2022/03/01 02:31:46;;;;;;;15.00;10.63;;;2.40;1.00;2.80;101905.00;;;;5042810;28;20440;-78
2022/03/01 02:34:14;;;;;;;17.37;11.37;;;2.30;1.00;2.80;101898.00;;;;5043946;28;21044;-79
2022/03/01 02:36:44;;;;;;;16.07;10.53;;;2.30;1.00;2.80;101907.00;;;;5045644;28;20878;-77
2022/03/01 02:39:15;;;;;;;19.60;10.87;;;2.30;1.00;2.80;101903.00;;;;5028385;28;20452;-79
2022/03/01 02:41:46;;;;;;;18.13;11.50;;;2.30;1.00;2.80;101898.00;;;;5045069;28;20847;-78
2022/03/01 02:44:15;;;;;;;15.00;10.50;;;2.30;1.00;2.80;101881.00;;;;5028452;28;21028;-80
2022/03/01 02:46:45;;;;;;;15.27;11.20;;;2.30;1.00;2.80;101895.00;;;;5028595;28;20999;-79
2022/03/01 02:49:14;;;;;;;13.13;10.00;;;2.50;1.00;2.70;101892.00;;;;5028267;28;20457;-77
2022/03/01 02:51:42;;;;;;;17.17;10.83;;;2.20;1.00;2.60;101883.00;;;;5030186;28;20467;-77
2022/03/01 02:54:10;;;;;;;14.90;10.80;;;2.20;1.00;2.70;101865.00;;;;5048371;28;20483;-77
2022/03/01 02:56:41;;;;;;;17.50;11.70;;;2.20;1.00;2.70;101865.00;;;;5046398;28;20937;-78
2022/03/01 02:59:09;;;;;;;14.50;10.83;;;2.20;1.00;2.70;101872.00;;;;5059969;28;20444;-77
2022/03/01 03:01:40;;;;;;;17.60;12.33;;;2.20;1.00;2.60;101853.00;;;;5030098;28;20511;-78
2022/03/01 03:04:09;;;;;;;17.40;11.43;;;2.10;1.00;2.70;101853.00;;;;5026236;28;20540;-79
2022/03/01 03:06:37;;;;;;;15.30;10.83;;;2.10;1.00;2.50;101768.00;;;;5029899;28;20453;-77
2022/03/01 03:09:06;;;;;;;16.90;12.13;;;2.00;1.00;2.40;101838.00;;;;5028202;28;20454;-78
2022/03/01 03:11:35;;;;;;;16.03;11.90;;;2.00;1.00;2.40;101885.00;;;;5035876;28;20460;-79
2022/03/01 03:14:04;;;;;;;16.63;11.13;;;2.00;1.00;2.40;101898.00;;;;5056560;28;20481;-79
2022/03/01 03:16:33;;;;;;;14.57;10.77;;;1.90;1.00;2.50;101899.00;;;;5041465;28;20607;-80
2022/03/01 03:19:01;;;;;;;16.10;11.43;;;1.90;1.00;2.40;101896.00;;;;5038763;28;20456;-79
2022/03/01 03:21:29;;;;;;;16.93;11.50;;;1.90;1.00;2.40;101904.00;;;;5028584;28;20602;-79
2022/03/01 03:23:58;;;;;;;20.07;11.90;;;1.80;1.00;2.50;101904.00;;;;5028852;28;20460;-80
2022/03/01 03:26:26;;;;;;;17.87;11.50;;;1.80;1.00;2.40;101886.00;;;;5040092;28;20497;-78
2022/03/01 03:28:55;;;;;;;16.60;11.80;;;1.90;1.00;2.50;101895.00;;;;5042019;28;20441;-78
2022/03/01 03:31:24;;;;;;;16.73;11.00;;;1.80;1.00;2.30;101905.00;;;;5061832;28;20471;-79
2022/03/01 03:33:53;;;;;;;15.47;11.43;;;2.20;1.00;2.40;101894.00;;;;5042569;28;20540;-78
2022/03/01 03:36:21;;;;;;;21.70;12.03;;;1.80;1.00;2.30;101889.00;;;;5045306;28;20494;-79
2022/03/01 03:38:50;;;;;;;16.20;11.10;;;1.80;1.00;2.30;101886.00;;;;5034318;28;20896;-79
2022/03/01 03:41:19;;;;;;;15.77;11.20;;;1.70;1.00;2.30;101886.00;;;;5043661;28;20464;-79
2022/03/01 03:43:47;;;;;;;16.30;10.80;;;1.70;1.00;2.20;101886.00;;;;5024314;28;20711;-79
2022/03/01 03:46:16;;;;;;;17.03;11.33;;;1.70;1.00;2.30;101895.00;;;;5020974;28;20532;-78
2022/03/01 03:48:46;;;;;;;21.03;12.20;;;1.70;1.00;2.20;101886.00;;;;5023518;28;20532;-81
2022/03/01 03:51:14;;;;;;;15.00;11.00;;;1.70;1.00;2.10;101891.00;;;;5031128;28;20448;-80
2022/03/01 03:53:43;;;;;;;17.30;12.00;;;1.60;1.00;2.20;101873.00;;;;5044674;28;20478;-78
2022/03/01 03:56:11;;;;;;;19.90;12.23;;;1.60;1.00;2.10;101889.00;;;;5035747;28;20456;-77
2022/03/01 03:58:39;;;;;;;15.33;11.33;;;1.60;1.00;2.10;101879.00;;;;5021767;28;20445;-77
2022/03/01 04:01:08;;;;;;;22.33;12.50;;;1.60;1.00;2.00;101880.00;;;;5019299;28;20453;-80
2022/03/01 04:03:38;;;;;;;18.93;11.50;;;1.60;1.00;2.00;101884.00;;;;5019390;28;20480;-78
2022/03/01 04:06:07;;;;;;;21.97;13.07;;;1.50;1.00;2.00;101858.00;;;;5018460;28;20452;-78
2022/03/01 04:08:36;;;;;;;25.07;13.87;;;1.50;1.00;2.00;101883.00;;;;5019914;28;20465;-78
2022/03/01 04:11:04;;;;;;;19.93;12.57;;;1.50;1.00;2.00;101883.00;;;;5017525;28;20450;-81
2022/03/01 04:13:32;;;;;;;21.10;12.93;;;1.40;1.00;2.00;101864.00;;;;5016593;28;20481;-77
2022/03/01 04:16:02;;;;;;;18.10;12.47;;;1.40;1.00;1.90;101879.00;;;;5018344;28;20452;-78
2022/03/01 04:18:30;;;;;;;18.53;12.10;;;1.40;1.00;1.90;101877.00;;;;5028706;28;20457;-78
2022/03/01 04:20:58;;;;;;;20.00;12.20;;;1.30;1.00;1.90;101882.00;;;;5032297;28;20524;-78
2022/03/01 04:23:28;;;;;;;18.50;13.37;;;1.30;1.00;1.80;101859.00;;;;5027470;28;20990;-78
2022/03/01 04:25:57;;;;;;;21.63;12.90;;;1.30;1.00;217.30;157388.00;;;;5019947;28;20460;-78
2022/03/01 04:28:25;;;;;;;21.10;12.53;;;1.30;1.00;1.80;101877.00;;;;5017403;28;20512;-77
2022/03/01 04:30:54;;;;;;;21.73;13.17;;;1.20;1.00;1.60;101860.00;;;;5016996;28;20449;-77
2022/03/01 04:33:23;;;;;;;20.10;12.20;;;1.20;1.00;1.70;101869.00;;;;5030967;28;20483;-78
2022/03/01 04:35:51;;;;;;;19.53;12.23;;;1.20;1.00;1.60;101843.00;;;;5032235;28;20958;-79
2022/03/01 04:38:20;;;;;;;19.90;13.27;;;1.40;1.00;217.30;157382.00;;;;5014894;28;20454;-80
2022/03/01 04:40:50;;;;;;;18.20;11.40;;;1.10;1.00;1.60;101870.00;;;;5018190;28;20460;-77
2022/03/01 04:43:18;;;;;;;25.63;14.20;;;1.10;1.00;1.50;101855.00;;;;5022833;28;20492;-78
2022/03/01 04:45:47;;;;;;;17.67;12.10;;;1.00;1.00;1.70;66632.00;;;;5033711;28;20460;-78
2022/03/01 04:48:17;;;;;;;21.67;12.40;;;1.00;1.00;1.80;101864.00;;;;5036099;28;20450;-77
2022/03/01 04:50:46;;;;;;;26.90;16.70;;;1.10;1.00;1.70;101854.00;;;;5024175;28;20967;-77
2022/03/01 04:53:14;;;;;;;22.30;13.77;;;1.10;1.00;1.70;101869.00;;;;5019302;28;20482;-77
2022/03/01 04:55:42;;;;;;;20.40;14.60;;;1.10;1.00;1.60;101870.00;;;;5018711;28;20872;-77
2022/03/01 04:58:20;;;;;;;16.97;11.70;;;1.10;1.00;1.50;101870.00;;;;5018870;28;20817;-78
2022/03/01 05:00:48;;;;;;;19.47;11.87;;;1.00;1.00;1.50;101850.00;;;;5017120;28;21324;-77
2022/03/01 05:03:18;;;;;;;16.47;11.47;;;1.00;1.00;1.50;101842.00;;;;5019398;28;20604;-78
2022/03/01 05:05:46;;;;;;;17.80;11.63;;;1.00;1.00;1.50;101828.00;;;;5022943;28;20454;-78
2022/03/01 05:08:15;;;;;;;22.10;11.87;;;1.00;1.00;1.50;101828.00;;;;5026343;28;20459;-79
2022/03/01 05:10:43;;;;;;;17.57;11.90;;;1.00;1.00;1.50;66585.00;;;;5043084;28;20581;-79
2022/03/01 05:13:12;;;;;;;19.67;12.80;;;1.40;1.00;1.50;101870.00;;;;5016704;28;20468;-78
2022/03/01 05:15:42;;;;;;;23.67;13.20;;;1.00;1.00;1.20;101857.00;;;;5017666;28;20489;-77
2022/03/01 05:18:11;;;;;;;20.10;13.37;;;0.90;1.00;1.40;101858.00;;;;5017798;28;21034;-77
2022/03/01 05:20:39;;;;;;;23.10;13.80;;;0.90;1.00;1.40;101871.00;;;;5017680;28;20456;-79
2022/03/01 05:23:08;;;;;;;26.80;14.17;;;0.90;1.00;1.50;101865.00;;;;5018418;28;21498;-78
2022/03/01 05:25:38;;;;;;;25.47;14.60;;;0.90;1.00;1.30;101863.00;;;;5034229;28;20446;-78
2022/03/01 05:28:06;;;;;;;27.10;13.90;;;0.80;1.00;1.30;101865.00;;;;5019041;28;20458;-77
2022/03/01 05:30:35;;;;;;;22.73;15.27;;;0.80;1.00;1.20;101877.00;;;;5017724;28;20446;-79
2022/03/01 05:33:05;;;;;;;22.50;14.33;;;0.70;1.00;1.30;101886.00;;;;5018972;28;20831;-77
2022/03/01 05:35:33;;;;;;;21.80;13.03;;;0.70;1.00;1.30;101881.00;;;;5016274;28;20572;-77
2022/03/01 05:38:02;;;;;;;25.07;15.03;;;0.70;1.00;1.10;101854.00;;;;5020371;28;20468;-77
2022/03/01 05:40:32;;;;;;;19.63;12.40;;;0.60;1.00;1.10;101884.00;;;;5018728;28;20460;-79
2022/03/01 05:43:01;;;;;;;17.13;13.50;;;0.60;1.00;1.20;101900.00;;;;5019589;28;20481;-77
2022/03/01 05:45:30;;;;;;;24.20;13.90;;;0.60;1.00;1.40;101909.00;;;;5017256;28;20453;-77
2022/03/01 05:48:00;;;;;;;31.10;15.40;;;0.70;1.00;1.40;101888.00;;;;5024767;28;20454;-78
2022/03/01 05:50:29;;;;;;;23.23;14.13;;;0.80;1.00;1.40;101897.00;;;;5023459;28;20450;-77
2022/03/01 05:52:58;;;;;;;23.47;12.80;;;0.80;1.00;1.40;101905.00;;;;5026372;28;20453;-78
2022/03/01 05:55:26;;;;;;;22.60;13.30;;;0.80;1.00;1.30;101907.00;;;;5020398;28;20516;-79
2022/03/01 05:57:54;;;;;;;29.90;15.70;;;0.80;1.00;1.20;101906.00;;;;5023128;28;20454;-79
2022/03/01 06:00:23;;;;;;;25.00;15.70;;;0.80;1.00;1.30;101932.00;;;;5022756;28;20461;-80
2022/03/01 06:02:52;;;;;;;20.50;12.27;;;0.80;1.00;1.40;101904.00;;;;5023068;28;20609;-79
2022/03/01 06:05:27;;;;;;;25.60;13.57;;;0.80;1.00;1.40;101911.00;;;;5028188;28;20467;-79
2022/03/01 06:07:57;;;;;;;26.63;13.87;;;0.80;1.00;1.40;101922.00;;;;5025695;28;20466;-78
2022/03/01 06:10:26;;;;;;;17.53;11.87;;;1.20;1.00;1.30;101905.00;;;;5038164;28;20460;-79
2022/03/01 06:12:55;;;;;;;20.40;13.10;;;0.80;1.00;1.30;101917.00;;;;5060172;28;20806;-77
2022/03/01 06:15:23;;;;;;;28.10;14.03;;;0.80;1.00;1.20;101924.00;;;;5043351;28;20449;-78
2022/03/01 06:17:51;;;;;;;22.33;13.60;;;0.80;1.00;1.30;101908.00;;;;5043224;28;20466;-77
2022/03/01 06:20:20;;;;;;;25.33;13.53;;;0.80;1.00;1.50;101909.00;;;;5030819;28;20465;-78
2022/03/01 06:22:51;;;;;;;21.73;13.20;;;0.90;1.00;1.40;101909.00;;;;5026095;28;20461;-78
2022/03/01 06:25:23;;;;;;;21.00;12.13;;;0.90;1.00;1.30;66552.00;;;;5018576;28;20540;-79
2022/03/01 06:27:53;;;;;;;19.37;13.10;;;0.90;1.00;1.40;101913.00;;;;5032111;28;20872;-78
2022/03/01 06:30:22;;;;;;;21.20;14.07;;;0.90;1.00;1.60;101915.00;;;;5033063;28;20453;-78
2022/03/01 06:32:59;;;;;;;20.07;13.60;;;1.00;1.00;1.70;101923.00;;;;5021225;28;20456;-76
2022/03/01 06:35:28;;;;;;;20.63;14.93;;;1.10;1.00;52.70;157404.00;;;;5015086;28;20457;-77
2022/03/01 06:37:58;;;;;;;27.80;13.90;;;1.20;1.00;1.80;101906.00;;;;5023796;28;20452;-79
2022/03/01 06:40:28;;;;;;;20.90;13.50;;;1.20;1.00;1.90;101921.00;;;;5030515;28;20971;-76
2022/03/01 06:42:58;;;;;;;20.50;14.07;;;1.30;1.00;1.90;101893.00;;;;5043761;28;20465;-79
2022/03/01 06:45:26;;;;;;;20.27;15.03;;;1.60;1.00;2.00;101922.00;;;;5026699;28;20463;-79
2022/03/01 06:47:55;;;;;;;24.53;14.20;;;1.40;1.00;2.00;101908.00;;;;5038601;28;20457;-78
2022/03/01 06:50:25;;;;;;;19.20;13.00;;;1.50;1.00;2.00;101922.00;;;;5022440;28;20493;-77
2022/03/01 06:52:53;;;;;;;26.73;15.20;;;1.50;1.00;2.10;101922.00;;;;5043842;28;21110;-79
2022/03/01 06:55:24;;;;;;;26.50;15.30;;;1.90;1.00;2.20;101924.00;;;;5021218;28;20489;-78
2022/03/01 06:57:55;;;;;;;24.60;15.80;;;1.60;1.00;2.40;101930.00;;;;5030910;28;20457;-78
2022/03/01 07:00:24;;;;;;;20.77;13.93;;;1.70;1.00;2.40;101933.00;;;;5037824;28;20448;-77
2022/03/01 07:02:52;;;;;;;27.17;17.30;;;1.80;1.00;2.50;101905.00;;;;5043144;28;20534;-76
2022/03/01 07:05:21;;;;;;;27.33;14.13;;;1.90;1.00;2.50;101937.00;;;;5029120;28;20503;-79
2022/03/01 07:07:49;;;;;;;21.67;13.33;;;1.90;1.00;2.60;101948.00;;;;5029891;28;20455;-79
2022/03/01 07:10:17;;;;;;;22.57;13.90;;;2.00;1.00;2.70;101939.00;;;;5039160;28;20485;-78
2022/03/01 07:12:47;;;;;;;27.07;13.43;;;2.50;1.00;2.70;101948.00;;;;5021010;28;20471;-77
2022/03/01 07:15:17;;;;;;;22.53;13.60;;;2.20;1.00;2.70;101935.00;;;;5028628;28;20478;-79
2022/03/01 07:17:47;;;;;;;20.87;13.20;;;2.20;1.00;3.00;101924.00;;;;5061016;28;20461;-81
2022/03/01 07:20:21;;;;;;;27.67;14.90;;;2.30;1.00;3.10;101937.00;;;;5049225;28;20472;-80
2022/03/01 07:22:53;;;;;;;29.67;14.47;;;2.40;1.00;3.10;101927.00;;;;5033737;28;20465;-79
2022/03/01 07:25:21;;;;;;;29.10;18.93;;;2.50;1.00;3.20;101930.00;;;;5026477;28;20472;-82
2022/03/01 07:27:51;;;;;;;23.80;13.47;;;2.60;1.00;3.30;101928.00;;;;5029333;28;20539;-81
2022/03/01 07:30:24;;;;;;;24.47;14.00;;;2.70;1.00;3.30;101941.00;;;;5045179;28;20529;-82
2022/03/01 07:32:54;;;;;;;18.20;12.13;;;2.70;1.00;3.20;101943.00;;;;5046144;28;20450;-81
2022/03/01 07:35:24;;;;;;;17.40;11.00;;;2.70;1.00;3.20;101948.00;;;;5049976;28;20430;-80
2022/03/01 07:37:53;;;;;;;17.67;11.67;;;2.70;1.00;3.30;101951.00;;;;5058537;28;20476;-79
2022/03/01 07:40:24;;;;;;;16.10;11.50;;;2.60;1.00;3.50;101952.00;;;;5047545;28;20488;-78
2022/03/01 07:42:53;;;;;;;15.20;11.03;;;2.90;1.00;3.40;101971.00;;;;5057346;28;20463;-81
2022/03/01 07:45:24;;;;;;;18.70;12.20;;;2.90;1.00;3.40;101960.00;;;;5044624;28;20491;-76
2022/03/01 07:47:53;;;;;;;16.50;11.77;;;2.90;1.00;3.50;101941.00;;;;5042137;28;20502;-77
2022/03/01 07:50:22;;;;;;;18.50;13.13;;;3.00;1.00;3.70;101945.00;;;;5041329;28;20480;-79
2022/03/01 07:52:51;;;;;;;16.73;11.93;;;3.10;1.00;3.80;101960.00;;;;5025898;28;20457;-78
2022/03/01 07:55:20;;;;;;;15.97;11.50;;;3.20;1.00;3.80;101958.00;;;;5025657;28;21045;-79
2022/03/01 07:57:51;;;;;;;15.00;10.87;;;3.30;1.00;3.90;101958.00;;;;5026100;28;20457;-79
2022/03/01 08:00:21;;;;;;;15.57;11.47;;;3.40;1.00;4.10;101949.00;;;;5024685;28;20511;-80
2022/03/01 08:02:53;;;;;;;17.87;12.10;;;3.50;1.00;4.00;101950.00;;;;5021347;28;20457;-79
2022/03/01 08:05:23;;;;;;;18.53;12.40;;;3.60;1.00;4.10;101923.00;;;;5020863;28;20479;-80
2022/03/01 08:07:58;;;;;;;16.03;11.87;;;3.70;1.00;4.20;101946.00;;;;5024674;28;20493;-83
2022/03/01 08:10:27;;;;;;;20.17;13.00;;;3.70;1.00;4.20;101942.00;;;;5040345;28;20519;-80
2022/03/01 08:12:56;;;;;;;13.17;10.83;;;3.70;1.00;4.20;101937.00;;;;5029882;28;20521;-77
2022/03/01 08:15:26;;;;;;;15.97;11.53;;;3.70;1.00;4.20;101940.00;;;;5028069;28;20462;-79
2022/03/01 08:17:58;;;;;;;14.57;11.10;;;3.70;1.00;4.20;101934.00;;;;5021939;28;20446;-78
2022/03/01 08:20:28;;;;;;;17.17;12.37;;;4.20;1.00;4.20;101937.00;;;;5022173;28;20883;-80
2022/03/01 08:22:57;;;;;;;20.20;10.97;;;3.70;1.00;4.30;101940.00;;;;5020504;28;20961;-79
2022/03/01 08:25:26;;;;;;;15.20;11.07;;;3.80;1.00;4.20;101949.00;;;;5023388;28;20481;-78
2022/03/01 08:27:58;;;;;;;17.50;12.93;;;3.80;1.00;4.30;101869.00;;;;5021950;28;21181;-80
2022/03/01 08:30:27;;;;;;;15.70;11.70;;;3.90;1.00;4.50;101919.00;;;;5040903;28;20465;-79
2022/03/01 08:32:59;;;;;;;14.80;11.10;;;4.00;1.00;4.70;101945.00;;;;5030890;28;20504;-81
2022/03/01 08:35:29;;;;;;;17.30;12.13;;;4.20;1.00;4.80;101946.00;;;;5039477;28;20473;-79
2022/03/01 08:38:02;;;;;;;12.10;10.13;;;4.30;1.00;4.70;101939.00;;;;5062512;28;20463;-79
2022/03/01 08:40:32;;;;;;;14.80;10.90;;;4.30;1.00;4.80;101946.00;;;;5043134;28;20448;-80
2022/03/01 08:43:01;;;;;;;15.23;10.13;;;4.30;1.00;4.80;101935.00;;;;5034603;28;20563;-78
2022/03/01 08:45:29;;;;;;;13.70;11.27;;;4.30;1.00;4.70;101927.00;;;;5028391;28;20462;-78
2022/03/01 08:47:59;;;;;;;15.67;10.80;;;4.30;1.00;4.80;101947.00;;;;5052014;28;20540;-82
2022/03/01 08:50:28;;;;;;;15.83;11.30;;;4.40;1.00;5.00;101956.00;;;;5051093;28;20450;-82
2022/03/01 08:53:13;;;;;;;14.60;11.30;;;4.50;1.00;5.00;101944.00;;;;5046216;28;20470;-79
2022/03/01 08:55:42;;;;;;;14.20;11.47;;;4.60;1.00;5.20;101943.00;;;;5044259;28;20438;-78
2022/03/01 08:58:10;;;;;;;15.57;10.30;;;4.70;1.00;5.20;101935.00;;;;5049871;28;20509;-78
2022/03/01 09:00:39;;;;;;;12.77;10.17;;;4.80;1.00;5.30;101935.00;;;;5037526;28;21005;-77
2022/03/01 09:03:09;;;;;;;14.57;10.27;;;4.80;1.00;5.50;101934.00;;;;5025856;28;20441;-78
2022/03/01 09:05:57;;;;;;;14.10;10.80;;;5.00;1.00;5.70;101916.00;;;;5023287;28;20473;-78
2022/03/01 09:08:30;;;;;;;13.27;9.10;;;5.10;1.00;5.60;101927.00;;;;5039364;28;20517;-80
2022/03/01 09:10:59;;;;;;;12.40;8.90;;;5.20;1.00;5.70;101925.00;;;;5022574;28;20452;-78
2022/03/01 09:13:28;;;;;;;12.63;9.80;;;5.30;1.00;5.80;101903.00;;;;5025843;28;20516;-80
2022/03/01 09:15:56;;;;;;;13.27;9.27;;;5.40;1.00;5.80;101907.00;;;;5037283;28;20459;-77
2022/03/01 09:18:26;;;;;;;11.73;9.50;;;5.50;1.00;6.10;101914.00;;;;5033378;28;20453;-79
2022/03/01 09:20:55;;;;;;;11.57;9.27;;;5.70;1.00;6.30;101908.00;;;;5020461;28;20983;-78
2022/03/01 09:23:23;;;;;;;12.57;9.73;;;5.90;1.00;6.50;101916.00;;;;5017030;28;20493;-80
2022/03/01 09:25:51;;;;;;;15.03;9.90;;;6.10;1.00;6.50;101895.00;;;;5019244;28;20483;-78
2022/03/01 09:28:20;;;;;;;10.27;9.23;;;6.20;1.00;6.70;101880.00;;;;5016595;28;20497;-80
2022/03/01 09:30:48;;;;;;;14.03;9.90;;;6.30;1.00;6.80;101900.00;;;;5021538;28;21723;-79
2022/03/01 09:33:17;;;;;;;16.00;10.13;;;6.40;1.00;6.90;101855.00;;;;5019183;28;20473;-78
2022/03/01 09:35:47;;;;;;;12.47;8.30;;;6.50;1.00;7.00;101892.00;;;;5020983;28;20449;-77
2022/03/01 09:38:16;;;;;;;13.40;9.63;;;6.60;1.00;7.10;101897.00;;;;5031335;28;20516;-78
2022/03/01 09:40:47;;;;;;;13.20;9.37;;;6.70;1.00;7.10;101877.00;;;;5030019;28;20483;-78
2022/03/01 09:43:17;;;;;;;12.70;9.20;;;6.30;1.00;7.10;101883.00;;;;5018904;28;20583;-78
2022/03/01 09:45:45;;;;;;;13.77;8.83;;;6.70;1.00;7.20;101873.00;;;;5037895;28;20583;-78
2022/03/01 09:48:14;;;;;;;13.90;9.60;;;7.10;1.00;7.20;101883.00;;;;5034521;28;20493;-78
2022/03/01 09:50:42;;;;;;;12.40;8.80;;;6.90;1.00;7.30;101869.00;;;;5020159;28;20487;-79
2022/03/01 09:53:13;;;;;;;11.80;9.50;;;7.00;1.00;7.40;101873.00;;;;5024292;28;20520;-78
2022/03/01 09:55:42;;;;;;;12.70;9.17;;;7.00;1.00;7.50;101869.00;;;;5023373;28;20468;-77
2022/03/01 09:58:10;;;;;;;12.07;9.13;;;6.70;1.00;7.70;101870.00;;;;5021050;28;21012;-78
2022/03/01 10:00:39;;;;;;;12.07;8.90;;;7.30;1.00;7.80;101853.00;;;;5019443;28;20449;-77
2022/03/01 10:03:09;;;;;;;12.30;9.07;;;7.40;1.00;8.00;101862.00;;;;5034006;28;20514;-76
2022/03/01 10:05:42;;;;;;;12.77;9.73;;;7.70;1.00;8.10;101863.00;;;;5029986;28;21020;-78
2022/03/01 10:08:14;;;;;;;11.73;9.10;;;7.80;1.00;8.20;101857.00;;;;5025297;28;20532;-79
2022/03/01 10:10:47;;;;;;;12.30;9.53;;;7.90;1.00;8.30;101847.00;;;;5024463;28;20492;-78
2022/03/01 10:13:22;;;;;;;13.37;9.20;;;8.00;1.00;8.30;101852.00;;;;5026805;28;20473;-78
2022/03/01 10:15:52;;;;;;;15.23;9.07;;;8.00;1.00;8.30;101840.00;;;;5023705;28;20487;-79
2022/03/01 10:18:21;;;;;;;15.63;8.70;;;8.10;1.00;8.40;101857.00;;;;5024352;28;20456;-79
2022/03/01 10:21:03;;;;;;;13.37;8.40;;;8.10;1.00;8.30;101847.00;;;;5026554;28;20452;-79
2022/03/01 10:23:33;;;;;;;13.00;8.60;;;8.10;1.00;8.30;101869.00;;;;5026801;28;20569;-79
2022/03/01 10:26:13;;;;;;;11.90;9.50;;;8.00;1.00;8.30;101869.00;;;;5043009;28;20989;-78
2022/03/01 10:28:45;;;;;;;11.90;9.00;;;8.10;1.00;8.30;101877.00;;;;5026126;28;20452;-80
2022/03/01 10:31:15;;;;;;;12.90;8.63;;;8.00;1.00;8.20;101861.00;;;;5030182;28;20477;-79
2022/03/01 10:33:55;;;;;;;13.00;9.67;;;8.10;1.00;8.40;101873.00;;;;5027996;28;20515;-79
2022/03/01 10:36:28;;;;;;;11.50;8.83;;;8.10;1.00;8.50;101874.00;;;;5037409;28;20440;-76
2022/03/01 10:39:01;;;;;;;11.97;8.93;;;8.20;1.00;8.60;101870.00;;;;5039019;28;21008;-77
2022/03/01 10:41:32;;;;;;;12.10;8.77;;;8.20;1.00;8.50;101880.00;;;;5027562;28;20531;-77
2022/03/01 10:44:03;;;;;;;13.20;8.70;;;8.20;1.00;8.30;101878.00;;;;5043560;28;20481;-79
2022/03/01 10:46:39;;;;;;;11.83;8.83;;;8.00;1.00;8.10;101877.00;;;;5045497;28;21409;-78
2022/03/01 10:49:10;;;;;;;11.80;8.80;;;7.80;1.00;8.10;101888.00;;;;5027103;28;20453;-78
2022/03/01 10:51:50;;;;;;;10.57;8.13;;;7.80;1.00;8.40;101882.00;;;;5027050;28;20604;-77
2022/03/01 10:54:31;;;;;;;11.23;8.60;;;8.00;1.00;8.70;101887.00;;;;5039457;28;20533;-78
2022/03/01 10:57:04;;;;;;;11.37;8.50;;;8.30;1.00;8.80;101854.00;;;;5046005;28;20532;-78
2022/03/01 10:59:38;;;;;;;12.33;9.00;;;8.50;1.00;9.10;101876.00;;;;5043930;28;20468;-80
2022/03/01 11:02:07;;;;;;;12.37;9.83;;;8.70;1.00;9.30;101842.00;;;;5032851;28;20449;-80
2022/03/01 11:04:36;;;;;;;12.20;9.33;;;8.90;1.00;9.20;101883.00;;;;5029955;28;20476;-79
2022/03/01 11:07:06;;;;;;;11.03;8.70;;;8.90;1.00;9.30;101880.00;;;;5045722;28;20476;-80
2022/03/01 11:09:36;;;;;;;12.33;9.80;;;9.30;1.00;9.30;101870.00;;;;5029617;28;20462;-80